sensor_id;sensor_type;location;lat;lon;timestamp;P1;durP1;ratioP1;P2;durP2;ratioP2
1416;SDS011;703;51.162;13.574;2023-03-29T00:01:34;596.22;;;266.05;;
1416;SDS011;703;51.162;13.574;2023-03-29T00:04:08;593.40;;;254.43;;
1416;SDS011;703;51.162;13.574;2023-03-29T00:06:34;596.78;;;267.88;;
1416;SDS011;703;51.162;13.574;2023-03-29T00:09:09;593.13;;;233.93;;
1416;SDS011;703;51.162;13.574;2023-03-29T00:11:37;600.17;;;275.33;;
1416;SDS011;703;51.162;13.574;2023-03-29T00:14:15;605.47;;;277.27;;
1416;SDS011;703;51.162;13.574;2023-03-29T00:16:48;610.85;;;276.73;;
1416;SDS011;703;51.162;13.574;2023-03-29T00:19:19;591.50;;;255.23;;
1416;SDS011;703;51.162;13.574;2023-03-29T00:21:50;602.92;;;271.17;;
1416;SDS011;703;51.162;13.574;2023-03-29T00:24:27;603.17;;;281.47;;
1416;SDS011;703;51.162;13.574;2023-03-29T00:26:56;597.10;;;284.92;;
1416;SDS011;703;51.162;13.574;2023-03-29T00:29:25;607.08;;;301.52;;
1416;SDS011;703;51.162;13.574;2023-03-29T00:31:53;607.10;;;279.38;;
1416;SDS011;703;51.162;13.574;2023-03-29T00:34:20;596.45;;;283.17;;
1416;SDS011;703;51.162;13.574;2023-03-29T00:36:56;593.35;;;277.02;;
1416;SDS011;703;51.162;13.574;2023-03-29T00:39:25;601.20;;;282.02;;
1416;SDS011;703;51.162;13.574;2023-03-29T00:42:05;595.97;;;262.00;;
1416;SDS011;703;51.162;13.574;2023-03-29T00:48:01;588.13;;;267.30;;
1416;SDS011;703;51.162;13.574;2023-03-29T00:50:49;595.53;;;269.73;;
1416;SDS011;703;51.162;13.574;2023-03-29T00:53:29;589.88;;;261.77;;
1416;SDS011;703;51.162;13.574;2023-03-29T00:56:04;588.53;;;194.37;;
1416;SDS011;703;51.162;13.574;2023-03-29T00:58:46;575.97;;;183.20;;
1416;SDS011;703;51.162;13.574;2023-03-29T01:01:22;635.65;;;359.27;;
1416;SDS011;703;51.162;13.574;2023-03-29T01:04:04;590.53;;;291.73;;
1416;SDS011;703;51.162;13.574;2023-03-29T01:06:48;588.88;;;315.10;;
1416;SDS011;703;51.162;13.574;2023-03-29T01:09:31;496.40;;;323.60;;
1416;SDS011;703;51.162;13.574;2023-03-29T01:12:00;336.48;;;305.20;;
1416;SDS011;703;51.162;13.574;2023-03-29T01:14:44;480.35;;;333.83;;
1416;SDS011;703;51.162;13.574;2023-03-29T01:17:17;633.70;;;327.15;;
1416;SDS011;703;51.162;13.574;2023-03-29T01:19:50;633.72;;;409.70;;
1416;SDS011;703;51.162;13.574;2023-03-29T01:22:36;624.50;;;385.55;;
1416;SDS011;703;51.162;13.574;2023-03-29T01:28:16;53.20;;;6.10;;
1416;SDS011;703;51.162;13.574;2023-03-29T01:33:37;528.00;;;310.48;;
1416;SDS011;703;51.162;13.574;2023-03-29T01:36:22;591.28;;;324.45;;
1416;SDS011;703;51.162;13.574;2023-03-29T01:38:59;593.70;;;312.20;;
1416;SDS011;703;51.162;13.574;2023-03-29T01:41:42;605.95;;;330.50;;
1416;SDS011;703;51.162;13.574;2023-03-29T01:48:00;582.92;;;233.77;;
1416;SDS011;703;51.162;13.574;2023-03-29T01:53:23;586.88;;;186.93;;
1416;SDS011;703;51.162;13.574;2023-03-29T01:56:05;582.45;;;171.25;;
1416;SDS011;703;51.162;13.574;2023-03-29T01:58:44;582.83;;;160.85;;
1416;SDS011;703;51.162;13.574;2023-03-29T02:01:15;618.20;;;341.98;;
1416;SDS011;703;51.162;13.574;2023-03-29T02:03:50;632.70;;;381.13;;
1416;SDS011;703;51.162;13.574;2023-03-29T02:06:20;637.30;;;439.37;;
1416;SDS011;703;51.162;13.574;2023-03-29T02:08:52;632.28;;;403.77;;
1416;SDS011;703;51.162;13.574;2023-03-29T02:11:39;640.90;;;419.20;;
1416;SDS011;703;51.162;13.574;2023-03-29T02:14:10;635.65;;;408.00;;
1416;SDS011;703;51.162;13.574;2023-03-29T02:16:38;636.55;;;397.95;;
1416;SDS011;703;51.162;13.574;2023-03-29T02:19:21;627.25;;;385.85;;
1416;SDS011;703;51.162;13.574;2023-03-29T02:22:02;628.08;;;392.55;;
1416;SDS011;703;51.162;13.574;2023-03-29T02:24:40;632.10;;;404.60;;
1416;SDS011;703;51.162;13.574;2023-03-29T02:27:10;635.47;;;408.58;;
1416;SDS011;703;51.162;13.574;2023-03-29T02:29:38;632.08;;;407.65;;
1416;SDS011;703;51.162;13.574;2023-03-29T02:32:09;634.42;;;411.55;;
1416;SDS011;703;51.162;13.574;2023-03-29T02:34:49;636.53;;;402.23;;
1416;SDS011;703;51.162;13.574;2023-03-29T02:37:30;632.13;;;415.58;;
1416;SDS011;703;51.162;13.574;2023-03-29T02:39:58;630.67;;;402.00;;
1416;SDS011;703;51.162;13.574;2023-03-29T02:42:26;637.90;;;414.58;;
1416;SDS011;703;51.162;13.574;2023-03-29T02:44:56;647.05;;;423.10;;
1416;SDS011;703;51.162;13.574;2023-03-29T02:47:36;643.27;;;433.60;;
1416;SDS011;703;51.162;13.574;2023-03-29T02:50:08;621.75;;;380.00;;
1416;SDS011;703;51.162;13.574;2023-03-29T02:52:40;614.78;;;361.98;;
1416;SDS011;703;51.162;13.574;2023-03-29T02:55:14;606.92;;;331.30;;
1416;SDS011;703;51.162;13.574;2023-03-29T02:57:45;606.85;;;339.00;;
1416;SDS011;703;51.162;13.574;2023-03-29T03:00:14;612.35;;;345.95;;
1416;SDS011;703;51.162;13.574;2023-03-29T03:02:43;603.50;;;255.27;;
1416;SDS011;703;51.162;13.574;2023-03-29T03:05:12;584.80;;;233.80;;
1416;SDS011;703;51.162;13.574;2023-03-29T03:07:43;598.10;;;287.77;;
1416;SDS011;703;51.162;13.574;2023-03-29T03:10:12;617.25;;;360.33;;
1416;SDS011;703;51.162;13.574;2023-03-29T03:12:38;625.20;;;386.08;;
1416;SDS011;703;51.162;13.574;2023-03-29T03:15:15;622.97;;;385.05;;
1416;SDS011;703;51.162;13.574;2023-03-29T03:17:42;620.45;;;366.60;;
1416;SDS011;703;51.162;13.574;2023-03-29T03:20:11;632.90;;;388.63;;
1416;SDS011;703;51.162;13.574;2023-03-29T03:22:48;629.70;;;383.57;;
1416;SDS011;703;51.162;13.574;2023-03-29T03:25:26;628.45;;;401.60;;
1416;SDS011;703;51.162;13.574;2023-03-29T03:27:54;626.78;;;403.63;;
1416;SDS011;703;51.162;13.574;2023-03-29T03:30:20;633.75;;;406.60;;
1416;SDS011;703;51.162;13.574;2023-03-29T03:32:51;628.50;;;392.27;;
1416;SDS011;703;51.162;13.574;2023-03-29T03:35:25;623.85;;;388.17;;
1416;SDS011;703;51.162;13.574;2023-03-29T03:37:55;618.80;;;373.27;;
1416;SDS011;703;51.162;13.574;2023-03-29T03:40:28;636.00;;;402.45;;
1416;SDS011;703;51.162;13.574;2023-03-29T03:43:21;629.50;;;393.08;;
1416;SDS011;703;51.162;13.574;2023-03-29T03:45:50;613.72;;;367.85;;
1416;SDS011;703;51.162;13.574;2023-03-29T03:48:19;599.30;;;315.25;;
1416;SDS011;703;51.162;13.574;2023-03-29T03:50:54;617.30;;;346.05;;
1416;SDS011;703;51.162;13.574;2023-03-29T03:53:24;622.28;;;373.85;;
1416;SDS011;703;51.162;13.574;2023-03-29T03:55:55;627.28;;;381.98;;
1416;SDS011;703;51.162;13.574;2023-03-29T03:58:21;630.08;;;404.20;;
1416;SDS011;703;51.162;13.574;2023-03-29T04:00:49;628.70;;;396.63;;
1416;SDS011;703;51.162;13.574;2023-03-29T04:03:15;639.78;;;409.15;;
1416;SDS011;703;51.162;13.574;2023-03-29T04:05:42;638.53;;;409.73;;
1416;SDS011;703;51.162;13.574;2023-03-29T04:08:10;599.63;;;315.73;;
1416;SDS011;703;51.162;13.574;2023-03-29T04:10:38;619.25;;;376.05;;
1416;SDS011;703;51.162;13.574;2023-03-29T04:13:04;621.60;;;382.42;;
1416;SDS011;703;51.162;13.574;2023-03-29T04:15:30;638.58;;;426.95;;
1416;SDS011;703;51.162;13.574;2023-03-29T04:17:57;606.90;;;352.65;;
1416;SDS011;703;51.162;13.574;2023-03-29T04:20:26;595.20;;;322.02;;
1416;SDS011;703;51.162;13.574;2023-03-29T04:22:53;618.60;;;368.20;;
1416;SDS011;703;51.162;13.574;2023-03-29T04:25:24;637.58;;;393.83;;
1416;SDS011;703;51.162;13.574;2023-03-29T04:27:50;621.00;;;381.20;;
1416;SDS011;703;51.162;13.574;2023-03-29T04:30:17;605.33;;;352.65;;
1416;SDS011;703;51.162;13.574;2023-03-29T04:32:43;586.80;;;305.75;;
1416;SDS011;703;51.162;13.574;2023-03-29T04:35:12;596.30;;;334.05;;
1416;SDS011;703;51.162;13.574;2023-03-29T04:37:38;583.58;;;292.38;;
1416;SDS011;703;51.162;13.574;2023-03-29T04:40:09;588.13;;;306.73;;
1416;SDS011;703;51.162;13.574;2023-03-29T04:42:43;588.55;;;302.42;;
1416;SDS011;703;51.162;13.574;2023-03-29T04:45:12;600.03;;;323.67;;
1416;SDS011;703;51.162;13.574;2023-03-29T04:47:45;601.10;;;315.45;;
1416;SDS011;703;51.162;13.574;2023-03-29T04:50:14;620.63;;;337.42;;
1416;SDS011;703;51.162;13.574;2023-03-29T04:52:43;607.50;;;340.17;;
1416;SDS011;703;51.162;13.574;2023-03-29T04:55:12;601.20;;;332.67;;
1416;SDS011;703;51.162;13.574;2023-03-29T04:57:49;595.03;;;319.52;;
1416;SDS011;703;51.162;13.574;2023-03-29T05:00:26;593.80;;;300.92;;
1416;SDS011;703;51.162;13.574;2023-03-29T05:02:56;594.92;;;316.40;;
1416;SDS011;703;51.162;13.574;2023-03-29T05:05:25;597.53;;;313.70;;
1416;SDS011;703;51.162;13.574;2023-03-29T05:07:56;595.15;;;320.55;;
1416;SDS011;703;51.162;13.574;2023-03-29T05:10:24;597.17;;;327.92;;
1416;SDS011;703;51.162;13.574;2023-03-29T05:12:51;602.22;;;335.80;;
1416;SDS011;703;51.162;13.574;2023-03-29T05:15:21;603.92;;;337.67;;
1416;SDS011;703;51.162;13.574;2023-03-29T05:17:47;595.53;;;311.15;;
1416;SDS011;703;51.162;13.574;2023-03-29T05:20:13;603.67;;;339.13;;
1416;SDS011;703;51.162;13.574;2023-03-29T05:22:40;605.63;;;355.20;;
1416;SDS011;703;51.162;13.574;2023-03-29T05:25:06;601.13;;;351.10;;
1416;SDS011;703;51.162;13.574;2023-03-29T05:27:33;604.55;;;338.80;;
1416;SDS011;703;51.162;13.574;2023-03-29T05:29:59;605.00;;;346.70;;
1416;SDS011;703;51.162;13.574;2023-03-29T05:32:25;597.85;;;331.65;;
1416;SDS011;703;51.162;13.574;2023-03-29T05:34:51;599.28;;;332.15;;
1416;SDS011;703;51.162;13.574;2023-03-29T05:37:17;597.50;;;331.30;;
1416;SDS011;703;51.162;13.574;2023-03-29T05:39:43;600.10;;;348.55;;
1416;SDS011;703;51.162;13.574;2023-03-29T05:42:09;600.22;;;336.25;;
1416;SDS011;703;51.162;13.574;2023-03-29T05:44:37;603.53;;;362.98;;
1416;SDS011;703;51.162;13.574;2023-03-29T05:47:04;598.63;;;332.23;;
1416;SDS011;703;51.162;13.574;2023-03-29T05:49:31;598.15;;;342.20;;
1416;SDS011;703;51.162;13.574;2023-03-29T05:51:56;605.43;;;350.03;;
1416;SDS011;703;51.162;13.574;2023-03-29T05:54:23;605.15;;;351.65;;
1416;SDS011;703;51.162;13.574;2023-03-29T05:56:49;602.65;;;340.33;;
1416;SDS011;703;51.162;13.574;2023-03-29T05:59:15;607.00;;;352.63;;
1416;SDS011;703;51.162;13.574;2023-03-29T06:01:41;608.03;;;358.58;;
1416;SDS011;703;51.162;13.574;2023-03-29T06:04:11;614.10;;;380.60;;
1416;SDS011;703;51.162;13.574;2023-03-29T06:06:38;608.78;;;362.45;;
1416;SDS011;703;51.162;13.574;2023-03-29T06:09:04;609.42;;;376.65;;
1416;SDS011;703;51.162;13.574;2023-03-29T06:11:30;605.88;;;342.33;;
1416;SDS011;703;51.162;13.574;2023-03-29T06:13:56;605.20;;;349.65;;
1416;SDS011;703;51.162;13.574;2023-03-29T06:16:22;609.60;;;353.00;;
1416;SDS011;703;51.162;13.574;2023-03-29T06:18:49;610.55;;;375.25;;
1416;SDS011;703;51.162;13.574;2023-03-29T06:21:15;610.75;;;361.25;;
1416;SDS011;703;51.162;13.574;2023-03-29T06:23:41;605.13;;;354.98;;
1416;SDS011;703;51.162;13.574;2023-03-29T06:26:06;609.38;;;370.77;;
1416;SDS011;703;51.162;13.574;2023-03-29T06:28:32;615.25;;;376.75;;
1416;SDS011;703;51.162;13.574;2023-03-29T06:30:58;614.13;;;379.83;;
1416;SDS011;703;51.162;13.574;2023-03-29T06:33:27;614.45;;;381.80;;
1416;SDS011;703;51.162;13.574;2023-03-29T06:35:53;613.17;;;372.42;;
1416;SDS011;703;51.162;13.574;2023-03-29T06:38:19;614.92;;;380.88;;
1416;SDS011;703;51.162;13.574;2023-03-29T06:40:45;617.17;;;395.33;;
1416;SDS011;703;51.162;13.574;2023-03-29T06:43:12;615.42;;;391.88;;
1416;SDS011;703;51.162;13.574;2023-03-29T06:45:38;612.85;;;370.88;;
1416;SDS011;703;51.162;13.574;2023-03-29T06:48:04;618.20;;;391.58;;
1416;SDS011;703;51.162;13.574;2023-03-29T06:50:31;618.58;;;403.48;;
1416;SDS011;703;51.162;13.574;2023-03-29T06:52:58;625.20;;;418.67;;
1416;SDS011;703;51.162;13.574;2023-03-29T06:55:23;622.25;;;414.80;;
1416;SDS011;703;51.162;13.574;2023-03-29T06:57:49;621.67;;;405.70;;
1416;SDS011;703;51.162;13.574;2023-03-29T07:00:16;623.72;;;403.77;;
1416;SDS011;703;51.162;13.574;2023-03-29T07:03:03;626.65;;;408.65;;
1416;SDS011;703;51.162;13.574;2023-03-29T07:05:30;648.05;;;459.67;;
1416;SDS011;703;51.162;13.574;2023-03-29T07:07:57;642.33;;;471.83;;
1416;SDS011;703;51.162;13.574;2023-03-29T07:10:36;640.38;;;479.13;;
1416;SDS011;703;51.162;13.574;2023-03-29T07:13:04;634.33;;;460.43;;
1416;SDS011;703;51.162;13.574;2023-03-29T07:15:31;641.13;;;479.00;;
1416;SDS011;703;51.162;13.574;2023-03-29T07:17:57;640.20;;;473.58;;
1416;SDS011;703;51.162;13.574;2023-03-29T07:20:24;632.92;;;462.05;;
1416;SDS011;703;51.162;13.574;2023-03-29T07:22:51;640.42;;;478.77;;
1416;SDS011;703;51.162;13.574;2023-03-29T07:25:17;639.75;;;469.73;;
1416;SDS011;703;51.162;13.574;2023-03-29T07:27:45;638.20;;;469.00;;
1416;SDS011;703;51.162;13.574;2023-03-29T07:30:16;637.25;;;466.40;;
1416;SDS011;703;51.162;13.574;2023-03-29T07:32:44;635.78;;;461.95;;
1416;SDS011;703;51.162;13.574;2023-03-29T07:35:11;645.38;;;495.90;;
1416;SDS011;703;51.162;13.574;2023-03-29T07:37:39;628.95;;;471.63;;
1416;SDS011;703;51.162;13.574;2023-03-29T07:40:07;638.28;;;488.48;;
1416;SDS011;703;51.162;13.574;2023-03-29T07:42:36;636.15;;;476.80;;
1416;SDS011;703;51.162;13.574;2023-03-29T07:45:03;644.42;;;508.13;;
1416;SDS011;703;51.162;13.574;2023-03-29T07:47:29;638.38;;;488.85;;
1416;SDS011;703;51.162;13.574;2023-03-29T07:49:55;640.90;;;492.33;;
1416;SDS011;703;51.162;13.574;2023-03-29T07:52:21;661.17;;;498.27;;
1416;SDS011;703;51.162;13.574;2023-03-29T07:54:47;638.85;;;488.15;;
1416;SDS011;703;51.162;13.574;2023-03-29T07:57:13;631.67;;;469.70;;
1416;SDS011;703;51.162;13.574;2023-03-29T07:59:38;627.00;;;471.33;;
1416;SDS011;703;51.162;13.574;2023-03-29T08:02:04;647.73;;;471.27;;
1416;SDS011;703;51.162;13.574;2023-03-29T08:04:30;641.00;;;466.17;;
1416;SDS011;703;51.162;13.574;2023-03-29T08:06:56;632.58;;;463.27;;
1416;SDS011;703;51.162;13.574;2023-03-29T08:09:22;638.70;;;476.10;;
1416;SDS011;703;51.162;13.574;2023-03-29T08:11:47;633.13;;;477.60;;
1416;SDS011;703;51.162;13.574;2023-03-29T08:14:13;632.38;;;466.42;;
1416;SDS011;703;51.162;13.574;2023-03-29T08:16:39;623.80;;;451.93;;
1416;SDS011;703;51.162;13.574;2023-03-29T08:19:05;620.85;;;431.00;;
1416;SDS011;703;51.162;13.574;2023-03-29T08:21:31;633.40;;;476.10;;
1416;SDS011;703;51.162;13.574;2023-03-29T08:23:56;622.97;;;444.33;;
1416;SDS011;703;51.162;13.574;2023-03-29T08:26:22;628.60;;;452.70;;
1416;SDS011;703;51.162;13.574;2023-03-29T08:28:48;628.13;;;454.30;;
1416;SDS011;703;51.162;13.574;2023-03-29T08:31:13;630.25;;;459.50;;
1416;SDS011;703;51.162;13.574;2023-03-29T08:33:40;629.88;;;461.65;;
1416;SDS011;703;51.162;13.574;2023-03-29T08:36:08;631.67;;;469.98;;
1416;SDS011;703;51.162;13.574;2023-03-29T08:38:34;631.55;;;461.52;;
1416;SDS011;703;51.162;13.574;2023-03-29T08:41:00;634.13;;;481.90;;
1416;SDS011;703;51.162;13.574;2023-03-29T08:48:26;641.35;;;503.88;;
1416;SDS011;703;51.162;13.574;2023-03-29T08:51:05;637.63;;;497.17;;
1416;SDS011;703;51.162;13.574;2023-03-29T08:56:26;636.40;;;486.73;;
1416;SDS011;703;51.162;13.574;2023-03-29T08:58:55;642.03;;;502.48;;
1416;SDS011;703;51.162;13.574;2023-03-29T09:01:22;641.35;;;506.70;;
1416;SDS011;703;51.162;13.574;2023-03-29T09:03:54;645.08;;;521.50;;
1416;SDS011;703;51.162;13.574;2023-03-29T09:06:28;644.20;;;519.60;;
1416;SDS011;703;51.162;13.574;2023-03-29T09:08:54;644.15;;;519.20;;
1416;SDS011;703;51.162;13.574;2023-03-29T09:19:25;644.85;;;521.35;;
1416;SDS011;703;51.162;13.574;2023-03-29T09:30:11;651.70;;;552.33;;
1416;SDS011;703;51.162;13.574;2023-03-29T09:32:49;656.10;;;548.95;;
1416;SDS011;703;51.162;13.574;2023-03-29T09:35:35;653.25;;;553.83;;
1416;SDS011;703;51.162;13.574;2023-03-29T09:38:03;653.70;;;567.20;;
1416;SDS011;703;51.162;13.574;2023-03-29T09:40:36;660.55;;;586.15;;
1416;SDS011;703;51.162;13.574;2023-03-29T09:43:07;657.13;;;571.10;;
1416;SDS011;703;51.162;13.574;2023-03-29T09:45:36;657.87;;;580.03;;
1416;SDS011;703;51.162;13.574;2023-03-29T09:48:11;658.90;;;583.10;;
1416;SDS011;703;51.162;13.574;2023-03-29T09:50:42;662.90;;;589.47;;
1416;SDS011;703;51.162;13.574;2023-03-29T09:53:15;660.65;;;587.35;;
1416;SDS011;703;51.162;13.574;2023-03-29T09:55:43;657.23;;;584.00;;
1416;SDS011;703;51.162;13.574;2023-03-29T09:58:11;659.72;;;586.10;;
1416;SDS011;703;51.162;13.574;2023-03-29T10:00:40;658.63;;;585.72;;
1416;SDS011;703;51.162;13.574;2023-03-29T10:03:06;662.45;;;589.55;;
1416;SDS011;703;51.162;13.574;2023-03-29T10:05:34;674.13;;;600.70;;
1416;SDS011;703;51.162;13.574;2023-03-29T10:08:13;664.47;;;591.17;;
1416;SDS011;703;51.162;13.574;2023-03-29T10:10:43;659.45;;;586.80;;
1416;SDS011;703;51.162;13.574;2023-03-29T10:13:12;674.07;;;600.87;;
1416;SDS011;703;51.162;13.574;2023-03-29T10:16:03;659.55;;;586.95;;
1416;SDS011;703;51.162;13.574;2023-03-29T10:18:31;663.92;;;591.13;;
1416;SDS011;703;51.162;13.574;2023-03-29T10:21:03;671.30;;;598.33;;
1416;SDS011;703;51.162;13.574;2023-03-29T10:23:33;673.90;;;601.20;;
1416;SDS011;703;51.162;13.574;2023-03-29T10:26:02;682.03;;;609.13;;
1416;SDS011;703;51.162;13.574;2023-03-29T10:28:30;659.28;;;586.55;;
1416;SDS011;703;51.162;13.574;2023-03-29T10:30:58;667.95;;;594.85;;
1416;SDS011;703;51.162;13.574;2023-03-29T10:33:29;679.97;;;606.97;;
1416;SDS011;703;51.162;13.574;2023-03-29T10:35:56;652.03;;;579.72;;
1416;SDS011;703;51.162;13.574;2023-03-29T10:38:24;719.40;;;645.22;;
1416;SDS011;703;51.162;13.574;2023-03-29T10:40:52;684.10;;;611.05;;
1416;SDS011;703;51.162;13.574;2023-03-29T10:43:26;684.90;;;611.78;;
1416;SDS011;703;51.162;13.574;2023-03-29T10:46:09;681.60;;;608.33;;
1416;SDS011;703;51.162;13.574;2023-03-29T10:48:37;729.33;;;655.10;;
1416;SDS011;703;51.162;13.574;2023-03-29T10:51:03;695.93;;;622.63;;
1416;SDS011;703;51.162;13.574;2023-03-29T10:53:31;703.50;;;629.45;;
1416;SDS011;703;51.162;13.574;2023-03-29T10:56:14;703.60;;;629.90;;
1416;SDS011;703;51.162;13.574;2023-03-29T11:15:21;739.40;;;664.50;;
1416;SDS011;703;51.162;13.574;2023-03-29T11:31:23;802.03;;;725.55;;
1416;SDS011;703;51.162;13.574;2023-03-29T11:41:56;759.70;;;684.47;;
1416;SDS011;703;51.162;13.574;2023-03-29T11:44:31;768.65;;;693.47;;
1416;SDS011;703;51.162;13.574;2023-03-29T11:52:25;828.55;;;751.85;;
1416;SDS011;703;51.162;13.574;2023-03-29T11:54:54;782.10;;;706.10;;
1416;SDS011;703;51.162;13.574;2023-03-29T11:57:33;811.15;;;734.55;;
1416;SDS011;703;51.162;13.574;2023-03-29T12:02:59;780.83;;;705.33;;
1416;SDS011;703;51.162;13.574;2023-03-29T12:05:30;779.42;;;703.60;;
1416;SDS011;703;51.162;13.574;2023-03-29T12:13:32;852.63;;;774.88;;
1416;SDS011;703;51.162;13.574;2023-03-29T12:18:45;846.47;;;768.97;;
1416;SDS011;703;51.162;13.574;2023-03-29T12:21:15;839.67;;;762.70;;
1416;SDS011;703;51.162;13.574;2023-03-29T12:23:46;820.30;;;743.83;;
1416;SDS011;703;51.162;13.574;2023-03-29T12:39:43;833.37;;;756.07;;
1416;SDS011;703;51.162;13.574;2023-03-29T12:42:13;871.75;;;793.13;;
1416;SDS011;703;51.162;13.574;2023-03-29T12:44:45;889.42;;;811.25;;
1416;SDS011;703;51.162;13.574;2023-03-29T12:47:19;851.97;;;774.15;;
1416;SDS011;703;51.162;13.574;2023-03-29T12:49:53;848.40;;;771.10;;
1416;SDS011;703;51.162;13.574;2023-03-29T12:52:22;858.47;;;780.28;;
1416;SDS011;703;51.162;13.574;2023-03-29T12:54:56;830.10;;;753.22;;
1416;SDS011;703;51.162;13.574;2023-03-29T12:57:27;780.97;;;705.90;;
1416;SDS011;703;51.162;13.574;2023-03-29T13:00:17;803.13;;;726.78;;
1416;SDS011;703;51.162;13.574;2023-03-29T13:03:00;854.15;;;776.65;;
1416;SDS011;703;51.162;13.574;2023-03-29T13:05:31;869.63;;;791.60;;
1416;SDS011;703;51.162;13.574;2023-03-29T13:08:10;786.97;;;711.42;;
1416;SDS011;703;51.162;13.574;2023-03-29T13:10:51;827.87;;;751.50;;
1416;SDS011;703;51.162;13.574;2023-03-29T13:13:20;801.90;;;725.80;;
1416;SDS011;703;51.162;13.574;2023-03-29T13:15:51;787.93;;;712.33;;
1416;SDS011;703;51.162;13.574;2023-03-29T13:21:22;824.92;;;748.58;;
1416;SDS011;703;51.162;13.574;2023-03-29T13:31:58;890.75;;;811.75;;
1416;SDS011;703;51.162;13.574;2023-03-29T13:35:21;905.20;;;826.10;;
1416;SDS011;703;51.162;13.574;2023-03-29T13:41:05;850.58;;;772.95;;
1416;SDS011;703;51.162;13.574;2023-03-29T13:43:32;838.38;;;760.42;;
1416;SDS011;703;51.162;13.574;2023-03-29T13:46:19;855.35;;;777.58;;
1416;SDS011;703;51.162;13.574;2023-03-29T13:48:56;831.95;;;754.40;;
1416;SDS011;703;51.162;13.574;2023-03-29T13:51:32;829.15;;;751.97;;
1416;SDS011;703;51.162;13.574;2023-03-29T13:56:52;855.50;;;777.70;;
1416;SDS011;703;51.162;13.574;2023-03-29T13:59:35;817.85;;;740.85;;
1416;SDS011;703;51.162;13.574;2023-03-29T14:02:03;802.92;;;726.20;;
1416;SDS011;703;51.162;13.574;2023-03-29T14:04:31;809.47;;;732.97;;
1416;SDS011;703;51.162;13.574;2023-03-29T14:07:02;802.97;;;726.72;;
1416;SDS011;703;51.162;13.574;2023-03-29T14:09:29;810.67;;;734.35;;
1416;SDS011;703;51.162;13.574;2023-03-29T14:12:00;840.15;;;762.83;;
1416;SDS011;703;51.162;13.574;2023-03-29T14:14:27;815.42;;;739.83;;
1416;SDS011;703;51.162;13.574;2023-03-29T14:16:54;814.20;;;737.60;;
1416;SDS011;703;51.162;13.574;2023-03-29T14:19:23;832.50;;;755.70;;
1416;SDS011;703;51.162;13.574;2023-03-29T14:22:00;834.55;;;757.95;;
1416;SDS011;703;51.162;13.574;2023-03-29T14:24:33;859.08;;;781.88;;
1416;SDS011;703;51.162;13.574;2023-03-29T14:27:03;830.50;;;753.92;;
1416;SDS011;703;51.162;13.574;2023-03-29T14:29:33;824.90;;;748.80;;
1416;SDS011;703;51.162;13.574;2023-03-29T14:32:09;822.10;;;745.67;;
1416;SDS011;703;51.162;13.574;2023-03-29T14:34:37;785.05;;;709.58;;
1416;SDS011;703;51.162;13.574;2023-03-29T14:37:04;781.78;;;706.10;;
1416;SDS011;703;51.162;13.574;2023-03-29T14:39:31;782.35;;;707.15;;
1416;SDS011;703;51.162;13.574;2023-03-29T14:41:58;788.33;;;713.13;;
1416;SDS011;703;51.162;13.574;2023-03-29T14:44:26;794.03;;;718.37;;
1416;SDS011;703;51.162;13.574;2023-03-29T14:46:55;796.55;;;720.83;;
1416;SDS011;703;51.162;13.574;2023-03-29T14:49:22;787.13;;;711.83;;
1416;SDS011;703;51.162;13.574;2023-03-29T14:51:48;770.28;;;695.42;;
1416;SDS011;703;51.162;13.574;2023-03-29T14:54:20;790.63;;;715.13;;
1416;SDS011;703;51.162;13.574;2023-03-29T14:56:48;813.30;;;737.55;;
1416;SDS011;703;51.162;13.574;2023-03-29T14:59:23;781.75;;;706.65;;
1416;SDS011;703;51.162;13.574;2023-03-29T15:01:56;796.25;;;720.13;;
1416;SDS011;703;51.162;13.574;2023-03-29T15:04:21;823.00;;;746.40;;
1416;SDS011;703;51.162;13.574;2023-03-29T15:06:47;827.43;;;751.13;;
1416;SDS011;703;51.162;13.574;2023-03-29T15:09:33;826.17;;;749.90;;
1416;SDS011;703;51.162;13.574;2023-03-29T15:11:59;851.50;;;774.33;;
1416;SDS011;703;51.162;13.574;2023-03-29T15:14:27;863.78;;;786.33;;
1416;SDS011;703;51.162;13.574;2023-03-29T15:17:00;831.95;;;755.45;;
1416;SDS011;703;51.162;13.574;2023-03-29T15:19:28;796.07;;;720.07;;
1416;SDS011;703;51.162;13.574;2023-03-29T15:21:55;789.95;;;714.17;;
1416;SDS011;703;51.162;13.574;2023-03-29T15:24:31;789.45;;;713.75;;
1416;SDS011;703;51.162;13.574;2023-03-29T15:27:02;793.25;;;717.47;;
1416;SDS011;703;51.162;13.574;2023-03-29T15:29:36;774.97;;;700.22;;
1416;SDS011;703;51.162;13.574;2023-03-29T15:32:06;795.17;;;719.42;;
1416;SDS011;703;51.162;13.574;2023-03-29T15:34:33;802.45;;;726.35;;
1416;SDS011;703;51.162;13.574;2023-03-29T15:36:59;807.83;;;731.22;;
1416;SDS011;703;51.162;13.574;2023-03-29T15:39:27;833.67;;;755.73;;
1416;SDS011;703;51.162;13.574;2023-03-29T15:41:56;827.05;;;750.55;;
1416;SDS011;703;51.162;13.574;2023-03-29T15:44:26;792.90;;;717.63;;
1416;SDS011;703;51.162;13.574;2023-03-29T15:46:57;818.80;;;742.65;;
1416;SDS011;703;51.162;13.574;2023-03-29T15:49:25;829.33;;;752.97;;
1416;SDS011;703;51.162;13.574;2023-03-29T15:51:52;819.03;;;742.60;;
1416;SDS011;703;51.162;13.574;2023-03-29T15:54:20;825.53;;;749.00;;
1416;SDS011;703;51.162;13.574;2023-03-29T15:56:54;868.47;;;791.42;;
1416;SDS011;703;51.162;13.574;2023-03-29T15:59:24;858.50;;;781.80;;
1416;SDS011;703;51.162;13.574;2023-03-29T16:01:50;825.72;;;749.33;;
1416;SDS011;703;51.162;13.574;2023-03-29T16:04:19;888.90;;;810.85;;
1416;SDS011;703;51.162;13.574;2023-03-29T16:06:48;857.53;;;780.80;;
1416;SDS011;703;51.162;13.574;2023-03-29T16:09:17;840.33;;;763.75;;
1416;SDS011;703;51.162;13.574;2023-03-29T16:11:47;818.20;;;742.30;;
1416;SDS011;703;51.162;13.574;2023-03-29T16:14:20;817.03;;;740.80;;
1416;SDS011;703;51.162;13.574;2023-03-29T16:16:54;827.78;;;751.22;;
1416;SDS011;703;51.162;13.574;2023-03-29T16:19:25;835.85;;;759.25;;
1416;SDS011;703;51.162;13.574;2023-03-29T16:21:52;844.35;;;767.25;;
1416;SDS011;703;51.162;13.574;2023-03-29T16:24:20;826.03;;;749.00;;
1416;SDS011;703;51.162;13.574;2023-03-29T16:26:48;839.10;;;761.67;;
1416;SDS011;703;51.162;13.574;2023-03-29T16:29:16;842.55;;;765.10;;
1416;SDS011;703;51.162;13.574;2023-03-29T16:31:42;835.00;;;757.50;;
1416;SDS011;703;51.162;13.574;2023-03-29T16:34:09;818.65;;;741.95;;
1416;SDS011;703;51.162;13.574;2023-03-29T16:36:38;823.87;;;747.37;;
1416;SDS011;703;51.162;13.574;2023-03-29T16:39:10;834.95;;;757.75;;
1416;SDS011;703;51.162;13.574;2023-03-29T16:41:40;810.63;;;733.90;;
1416;SDS011;703;51.162;13.574;2023-03-29T16:44:11;817.53;;;740.83;;
1416;SDS011;703;51.162;13.574;2023-03-29T16:46:41;830.53;;;753.27;;